Time;durP1;ratioP1;P1;durP2;ratioP2;P2;SDS_P1;SDS_P2;PMS_P1;PMS_P2;Temp;Humidity;BMP_temperature;BMP_pressure;BME280_temperature;BME280_humidity;BME280_pressure;Samples;Min_cycle;Max_cycle;Signal;HPM_P1;HPM_P2
2022/08/06 00:05:18;;;;;;;4.10;1.63;;;;;;;19.85;67.32;100972.69;20897956;28;20053;-67
2022/08/06 00:15:35;;;;;;;5.03;1.58;;;;;;;19.63;68.51;100989.56;20910550;28;20087;-67
2022/08/06 00:25:56;;;;;;;5.40;1.80;;;;;;;19.48;69.21;100988.41;20910087;28;20515;-69
2022/08/06 00:35:57;;;;;;;3.47;1.75;;;;;;;19.35;70.25;100992.53;20907655;28;20057;-68
2022/08/06 00:45:59;;;;;;;5.32;1.77;;;;;;;19.25;70.94;101003.59;20907733;28;20094;-67
2022/08/06 00:56:01;;;;;;;5.03;2.15;;;;;;;19.04;73.47;101005.38;20906744;28;20482;-67
2022/08/06 01:06:10;;;;;;;4.60;1.90;;;;;;;18.87;75.43;101019.31;20905856;28;20048;-67
2022/08/06 01:16:32;;;;;;;4.70;2.10;;;;;;;18.46;78.68;101019.13;20906456;28;20531;-67
2022/08/06 01:26:33;;;;;;;9.07;2.80;;;;;;;18.35;79.13;101016.00;20904041;28;20057;-66
2022/08/06 01:36:35;;;;;;;5.15;2.30;;;;;;;18.17;80.38;101018.44;20903082;28;20053;-66
2022/08/06 01:46:41;;;;;;;5.75;2.50;;;;;;;17.92;81.77;101017.63;20903021;28;20049;-65
2022/08/06 01:56:44;;;;;;;5.20;2.20;;;;;;;17.98;80.70;101032.44;20901649;28;20132;-66
2022/08/06 02:06:57;;;;;;;4.68;2.47;;;;;;;17.79;81.57;101026.94;20900537;28;20045;-67
2022/08/06 02:16:59;;;;;;;5.50;2.47;;;;;;;17.60;83.28;101032.84;20900729;28;20052;-67
2022/08/06 02:27:14;;;;;;;6.82;2.70;;;;;;;17.40;85.29;101037.97;20898289;28;20044;-66
2022/08/06 02:37:24;;;;;;;5.18;2.30;;;;;;;17.36;84.26;101033.69;20898007;28;20439;-66
2022/08/06 02:47:45;;;;;;;5.43;2.30;;;;;;;17.29;83.65;101035.66;20898908;28;20049;-65
2022/08/06 02:58:02;;;;;;;5.40;2.45;;;;;;;17.33;82.18;101042.56;20896994;28;20051;-66
2022/08/06 03:08:06;;;;;;;5.43;2.03;;;;;;;17.32;81.43;101047.94;20896231;28;20049;-67
2022/08/06 03:18:10;;;;;;;6.43;2.60;;;;;;;17.14;82.45;101055.53;20896657;28;20091;-67
2022/08/06 03:28:16;;;;;;;5.68;2.20;;;;;;;16.99;83.15;101071.06;20895958;28;20060;-67
2022/08/06 03:38:23;;;;;;;8.23;2.30;;;;;;;16.78;83.94;101075.25;20897289;28;20511;-66
2022/08/06 03:48:29;;;;;;;4.78;1.77;;;;;;;16.66;83.93;101074.66;20911110;28;20110;-67
2022/08/06 03:58:38;;;;;;;5.13;1.73;;;;;;;16.51;83.90;101083.03;20910069;28;20131;-66
2022/08/06 04:08:40;;;;;;;4.70;1.80;;;;;;;16.54;81.28;101090.03;20908333;28;20049;-67
2022/08/06 04:18:43;;;;;;;5.45;1.70;;;;;;;16.33;81.24;101096.78;20908908;28;20549;-66
2022/08/06 04:28:51;;;;;;;4.85;1.45;;;;;;;16.32;78.18;101100.34;20907780;28;20059;-66
2022/08/06 04:38:58;;;;;;;2.95;1.60;;;;;;;16.36;76.52;101109.91;20906649;28;20547;-66
2022/08/06 04:49:00;;;;;;;3.22;1.48;;;;;;;16.38;74.34;101116.91;20906437;28;20493;-66
2022/08/06 04:59:01;;;;;;;7.32;1.35;;;;;;;16.48;71.86;101119.25;20905403;28;20045;-66
2022/08/06 05:09:04;;;;;;;3.78;1.52;;;;;;;16.36;70.73;101139.00;20904470;28;20049;-66
2022/08/06 05:19:21;;;;;;;6.20;1.52;;;;;;;16.45;69.64;101146.66;20904627;28;20063;-65
2022/08/06 05:29:23;;;;;;;4.15;1.52;;;;;;;16.52;68.69;101152.63;20904220;28;20413;-66
2022/08/06 05:39:24;;;;;;;4.93;1.67;;;;;;;16.51;68.61;101165.00;20901590;28;20053;-66
2022/08/06 05:49:46;;;;;;;3.72;1.20;;;;;;;16.61;69.19;101166.47;20901472;28;20049;-66
2022/08/06 06:00:01;;;;;;;8.27;1.50;;;;;;;16.74;67.60;101182.88;20900735;28;20049;-66
2022/08/06 06:10:05;;;;;;;3.33;1.50;;;;;;;16.93;67.11;101188.50;20897245;28;20053;-66
2022/08/06 06:20:18;;;;;;;3.53;1.75;;;;;;;17.26;65.24;101206.94;20898441;28;20048;-66
2022/08/06 06:30:39;;;;;;;4.60;1.17;;;;;;;17.28;65.85;101200.69;20897645;28;20053;-66
2022/08/06 06:40:53;;;;;;;3.35;1.45;;;;;;;17.47;65.38;101211.56;20896477;28;20052;-65
2022/08/06 06:51:14;;;;;;;4.47;1.50;;;;;;;17.69;66.17;101212.63;20894958;28;20111;-66
2022/08/06 07:01:35;;;;;;;7.47;1.55;;;;;;;17.92;64.54;101209.25;20895131;28;20053;-65
2022/08/06 07:11:39;;;;;;;5.67;1.70;;;;;;;18.24;63.26;101214.38;20894966;28;20045;-65
2022/08/06 07:22:01;;;;;;;6.22;1.60;;;;;;;18.31;62.61;101226.50;20936838;22;20048;-72
2022/08/06 07:32:02;;;;;;;5.57;1.60;;;;;;;18.60;62.88;101226.34;20906297;28;20045;-71
2022/08/06 07:42:05;;;;;;;4.95;1.70;;;;;;;18.91;61.31;101227.91;20906028;28;20122;-69
2022/08/06 07:52:12;;;;;;;4.88;1.45;;;;;;;19.28;58.89;101216.78;20906584;28;20047;-69
2022/08/06 08:02:18;;;;;;;6.45;1.52;;;;;;;19.53;56.52;101221.97;20908510;28;20048;-72
2022/08/06 08:12:30;;;;;;;3.15;1.13;;;;;;;20.04;53.77;101212.84;20908206;28;20061;-71
2022/08/06 08:22:37;;;;;;;4.70;1.42;;;;;;;20.46;51.00;101214.59;20910303;28;20144;-70
2022/08/06 08:32:48;;;;;;;5.88;1.35;;;;;;;20.33;49.99;101213.41;20890048;28;20575;-71
2022/08/06 08:42:55;;;;;;;4.40;1.10;;;;;;;20.53;47.50;101213.41;20905190;28;20073;-70
2022/08/06 08:52:58;;;;;;;6.68;1.50;;;;;;;20.60;46.87;101200.69;20904209;28;20473;-70
2022/08/06 09:03:00;;;;;;;5.13;1.20;;;;;;;21.00;45.25;101197.09;20902316;28;20091;-71
2022/08/06 09:13:01;;;;;;;4.38;1.13;;;;;;;21.45;42.67;101190.53;20902573;28;20106;-70
2022/08/06 09:23:23;;;;;;;4.47;1.00;;;;;;;21.76;41.91;101189.94;20901007;28;20053;-71
2022/08/06 09:33:29;;;;;;;3.95;1.00;;;;;;;21.75;42.16;101193.50;20901883;28;20079;-71
2022/08/06 09:43:50;;;;;;;4.38;1.02;;;;;;;21.73;39.65;101198.91;20901689;28;20053;-71
2022/08/06 09:54:05;;;;;;;5.00;1.05;;;;;;;22.01;39.65;101177.06;20900055;28;20110;-71
2022/08/06 10:04:25;;;;;;;6.28;2.05;;;;;;;22.15;38.45;101187.06;20898131;28;20060;-71
2022/08/06 10:14:37;;;;;;;3.17;1.05;;;;;;;22.50;37.66;101179.03;20897892;28;20102;-71
2022/08/06 10:24:38;;;;;;;1.90;0.65;;;;;;;22.88;37.26;101186.78;20897576;28;20082;-71
2022/08/06 10:34:49;;;;;;;5.22;0.80;;;;;;;23.25;35.75;101174.97;20895816;28;20053;-71
2022/08/06 10:44:53;;;;;;;4.55;0.70;;;;;;;22.90;34.73;101174.22;20896517;28;20522;-71
2022/08/06 10:54:56;;;;;;;1.83;0.65;;;;;;;22.95;34.99;101173.06;20894874;28;20059;-71
2022/08/06 11:04:57;;;;;;;3.00;1.00;;;;;;;22.82;34.56;101165.75;20893656;28;20098;-71
2022/08/06 11:14:59;;;;;;;2.97;0.90;;;;;;;23.06;33.28;101153.75;20894629;28;20053;-71
2022/08/06 11:25:02;;;;;;;1.67;0.70;;;;;;;23.28;32.65;101159.63;20894080;28;20059;-72
2022/08/06 11:35:23;;;;;;;4.35;0.85;;;;;;;23.29;32.22;101131.09;20893204;28;20080;-72
2022/08/06 11:45:28;;;;;;;3.67;0.95;;;;;;;23.25;31.25;101122.38;20894491;28;20103;-70
2022/08/06 11:55:50;;;;;;;3.22;0.65;;;;;;;23.52;30.49;101108.34;20893366;28;20049;-69
2022/08/06 12:05:52;;;;;;;2.40;0.80;;;;;;;23.52;30.52;101092.31;20904242;28;20056;-70
2022/08/06 12:15:58;;;;;;;1.42;0.60;;;;;;;23.72;31.35;101100.09;20907541;28;20045;-70
2022/08/06 12:26:12;;;;;;;1.30;0.68;;;;;;;23.53;30.62;101094.94;20907415;28;20103;-69
2022/08/06 12:36:15;;;;;;;3.58;0.80;;;;;;;23.92;30.42;101074.81;20903705;28;20535;-70
2022/08/06 12:46:32;;;;;;;1.70;0.70;;;;;;;24.49;30.21;101060.63;20906762;28;20049;-71
2022/08/06 12:56:34;;;;;;;2.08;0.70;;;;;;;24.48;31.15;101043.69;20905199;28;20401;-71
2022/08/06 13:06:39;;;;;;;4.43;0.70;;;;;;;24.19;30.29;101050.81;20903754;28;20045;-71
2022/08/06 13:16:41;;;;;;;3.83;1.35;;;;;;;23.95;30.34;101034.47;20903599;28;20581;-70
2022/08/06 13:26:54;;;;;;;4.97;1.10;;;;;;;24.45;29.42;101029.66;20920008;22;20055;-73
2022/08/06 13:36:57;;;;;;;4.50;1.10;;;;;;;24.58;29.72;101019.88;20902966;28;20084;-72
2022/08/06 13:47:01;;;;;;;2.03;0.73;;;;;;;24.56;29.21;101005.72;20902083;28;20107;-71
2022/08/06 13:57:22;;;;;;;4.10;0.80;;;;;;;24.72;29.73;101006.47;20901616;28;20037;-71
2022/08/06 14:07:23;;;;;;;2.05;0.65;;;;;;;24.86;28.91;101002.84;20879853;28;20107;-72
2022/08/06 14:17:34;;;;;;;1.55;0.95;;;;;;;25.25;28.24;100993.16;20902396;28;20048;-71
2022/08/06 14:27:39;;;;;;;1.55;0.60;;;;;;;25.23;27.60;100984.34;20904631;28;20048;-72
2022/08/06 14:37:45;;;;;;;2.50;0.82;;;;;;;25.12;28.49;100976.19;20892987;28;20059;-73
2022/08/06 14:47:55;;;;;;;3.08;0.60;;;;;;;25.25;27.31;100966.38;20897724;28;20774;-73
2022/08/06 14:58:01;;;;;;;2.00;0.63;;;;;;;25.11;27.72;100959.25;20896936;28;20063;-74
2022/08/06 15:08:07;;;;;;;3.17;0.95;;;;;;;25.26;27.29;100958.22;20895971;28;20098;-73
2022/08/06 15:18:09;;;;;;;1.50;0.50;;;;;;;24.95;26.85;100950.47;20895841;28;20511;-73
2022/08/06 15:28:31;;;;;;;2.20;0.70;;;;;;;25.12;27.52;100926.13;20895161;28;20080;-73
2022/08/06 15:38:37;;;;;;;4.60;0.80;;;;;;;25.30;27.90;100938.28;20903733;28;20540;-74
2022/08/06 15:48:38;;;;;;;5.47;0.90;;;;;;;25.32;27.88;100930.97;20912045;28;20682;-75
2022/08/06 15:58:54;;;;;;;5.95;0.73;;;;;;;25.39;27.65;100923.34;20913290;28;20390;-74
2022/08/06 16:08:55;;;;;;;2.05;0.50;;;;;;;25.42;27.11;100925.84;20902644;28;20056;-75
2022/08/06 16:19:00;;;;;;;2.85;0.77;;;;;;;25.07;27.39;100926.44;20905721;28;20056;-75
2022/08/06 16:29:03;;;;;;;2.67;0.63;;;;;;;25.12;26.93;100936.00;20905875;28;20056;-75
2022/08/06 16:39:05;;;;;;;4.68;0.55;;;;;;;25.01;27.19;100921.47;20904839;28;20122;-74
2022/08/06 16:49:13;;;;;;;3.85;0.60;;;;;;;24.95;27.86;100904.94;20902858;28;20056;-75
2022/08/06 16:59:21;;;;;;;1.38;0.60;;;;;;;24.67;28.14;100901.44;20885348;28;20111;-75
2022/08/06 17:09:42;;;;;;;5.85;0.70;;;;;;;24.77;28.45;100894.53;20822105;28;20045;-74
2022/08/06 17:19:49;;;;;;;2.58;0.52;;;;;;;24.50;28.16;100899.88;20901573;28;20080;-74
2022/08/06 17:30:01;;;;;;;2.60;0.57;;;;;;;24.55;28.14;100902.25;20900800;28;20057;-74
2022/08/06 17:40:08;;;;;;;1.85;0.60;;;;;;;24.36;28.75;100893.69;20900316;28;20071;-74
2022/08/06 17:50:20;;;;;;;2.78;0.70;;;;;;;24.19;28.78;100898.31;20899847;28;20056;-74
2022/08/06 18:00:41;;;;;;;4.20;0.77;;;;;;;23.85;29.17;100901.41;20897739;28;20109;-74
2022/08/06 18:10:48;;;;;;;3.65;0.70;;;;;;;23.65;29.75;100902.69;20893865;28;20052;-75
2022/08/06 18:20:51;;;;;;;5.77;0.90;;;;;;;23.39;29.96;100920.31;20896210;28;20052;-75
2022/08/06 18:30:53;;;;;;;3.53;0.60;;;;;;;22.93;30.34;100921.22;20896649;28;20045;-74
2022/08/06 18:41:00;;;;;;;2.58;0.47;;;;;;;22.64;30.60;100927.38;20887275;28;20131;-74
2022/08/06 18:51:16;;;;;;;3.78;0.70;;;;;;;22.37;31.43;100932.47;20892811;28;20052;-75
2022/08/06 19:01:19;;;;;;;3.17;0.60;;;;;;;22.10;31.86;100943.72;20830298;28;20053;-74
2022/08/06 19:11:22;;;;;;;3.20;0.73;;;;;;;21.93;32.22;100954.44;20826744;28;20053;-74
2022/08/06 19:21:23;;;;;;;3.30;0.60;;;;;;;21.60;33.26;100965.94;20973722;22;20041;-68
2022/08/06 19:31:26;;;;;;;3.03;0.75;;;;;;;21.45;33.41;100972.06;20889318;28;20099;-68
2022/08/06 19:41:43;;;;;;;4.13;0.70;;;;;;;21.17;34.37;100984.09;20892790;28;20049;-67
2022/08/06 19:52:01;;;;;;;3.42;0.52;;;;;;;20.99;35.14;100985.91;20892623;28;20090;-67
2022/08/06 20:02:06;;;;;;;4.13;0.77;;;;;;;20.83;35.77;100984.06;20891214;28;20045;-68
2022/08/06 20:12:16;;;;;;;3.28;0.80;;;;;;;20.61;36.38;100984.25;20890928;28;20064;-67
2022/08/06 20:22:17;;;;;;;4.40;0.80;;;;;;;20.34;37.06;100979.25;20893259;28;20067;-67
2022/08/06 20:32:20;;;;;;;3.97;0.90;;;;;;;20.17;37.43;100988.03;20905204;28;20060;-67
2022/08/06 20:42:22;;;;;;;5.07;0.95;;;;;;;20.07;37.83;100989.38;20903550;28;20068;-67
2022/08/06 20:52:24;;;;;;;4.03;0.80;;;;;;;19.83;38.44;100986.03;20903867;28;20680;-67
2022/08/06 21:02:29;;;;;;;2.92;0.80;;;;;;;19.63;38.98;100984.25;20901504;28;20049;-67
2022/08/06 21:12:33;;;;;;;1.63;0.50;;;;;;;19.45;39.37;100979.72;20901123;28;20517;-67
2022/08/06 21:22:36;;;;;;;3.00;0.68;;;;;;;19.34;39.68;100972.22;20900805;28;20383;-67
2022/08/06 21:32:37;;;;;;;1.95;0.50;;;;;;;19.19;40.00;100971.09;20898048;28;20786;-67
2022/08/06 21:42:43;;;;;;;2.55;0.73;;;;;;;18.99;40.92;100981.69;20898762;28;20075;-67
2022/08/06 21:52:45;;;;;;;3.13;1.13;;;;;;;18.71;41.81;100989.88;20898426;28;20071;-67
2022/08/06 22:02:47;;;;;;;5.07;0.80;;;;;;;18.57;42.12;101001.00;20897927;28;20052;-67
2022/08/06 22:12:58;;;;;;;2.08;0.70;;;;;;;18.37;42.65;100998.28;20898806;28;20485;-67
2022/08/06 22:23:17;;;;;;;3.25;0.73;;;;;;;18.14;42.96;101005.31;20898626;28;20049;-67
2022/08/06 22:33:18;;;;;;;2.55;0.98;;;;;;;17.99;43.35;100992.63;20897906;28;20060;-67
2022/08/06 22:43:23;;;;;;;3.45;0.73;;;;;;;17.79;43.72;100995.16;20895753;28;20051;-68
2022/08/06 22:53:45;;;;;;;4.50;0.68;;;;;;;17.65;44.02;100999.13;20898293;28;20103;-68
2022/08/06 23:04:06;;;;;;;3.92;0.70;;;;;;;17.58;44.32;100994.97;20855230;28;20107;-68
2022/08/06 23:14:09;;;;;;;1.50;0.60;;;;;;;17.42;45.10;100997.25;20812819;28;20053;-68
2022/08/06 23:24:10;;;;;;;4.15;0.60;;;;;;;17.23;45.51;100990.00;20812491;28;20053;-68
2022/08/06 23:34:13;;;;;;;1.70;0.70;;;;;;;17.17;45.82;100981.38;20812471;28;20521;-68
2022/08/06 23:44:34;;;;;;;2.80;0.70;;;;;;;17.02;46.33;100976.59;20813316;28;20103;-68
2022/08/06 23:54:42;;;;;;;3.03;0.80;;;;;;;16.96;46.52;100976.81;20813733;28;20144;-67
